createdAt,value
2023-03-06T00:01:26.916Z,99614.00
2023-03-06T00:04:00.754Z,99613.00
2023-03-06T00:06:34.119Z,99611.00
2023-03-06T00:09:07.892Z,99613.00
2023-03-06T00:11:41.941Z,99605.00
2023-03-06T00:14:16.348Z,99600.00
2023-03-06T00:16:55.691Z,99601.00
2023-03-06T00:19:29.816Z,99603.00
2023-03-06T00:22:04.436Z,99594.00
2023-03-06T00:24:38.529Z,99591.00
2023-03-06T00:27:12.564Z,99589.00
2023-03-06T00:29:49.136Z,99586.00
2023-03-06T00:32:25.136Z,99581.00
2023-03-06T00:34:59.181Z,99578.00
2023-03-06T00:37:35.054Z,99575.00
2023-03-06T00:40:12.768Z,99571.00
2023-03-06T00:42:47.572Z,99572.00
2023-03-06T00:45:21.656Z,99557.00
2023-03-06T00:47:57.025Z,99566.00
2023-03-06T00:50:30.476Z,99562.00
2023-03-06T00:53:04.418Z,99555.00
2023-03-06T00:55:38.041Z,99553.00
2023-03-06T00:58:12.277Z,99562.00
2023-03-06T01:00:46.728Z,99547.00
2023-03-06T01:03:22.751Z,99550.00
2023-03-06T01:05:58.050Z,99544.00
2023-03-06T01:08:31.936Z,99545.00
2023-03-06T01:11:06.722Z,99536.00
2023-03-06T01:13:40.398Z,99537.00
2023-03-06T01:16:16.874Z,99543.00
2023-03-06T01:18:52.509Z,99528.00
2023-03-06T01:21:27.310Z,99538.00
2023-03-06T01:24:00.729Z,99527.00
2023-03-06T01:26:34.774Z,99529.00
2023-03-06T01:29:08.450Z,99530.00
2023-03-06T01:31:42.733Z,99527.00
2023-03-06T01:34:18.105Z,99521.00
2023-03-06T01:36:52.141Z,99518.00
2023-03-06T01:39:25.952Z,99518.00
2023-03-06T01:42:00.032Z,99520.00
2023-03-06T01:44:34.043Z,99519.00
2023-03-06T01:47:07.888Z,99512.00
2023-03-06T01:49:43.735Z,99504.00
2023-03-06T01:52:23.254Z,99505.00
2023-03-06T01:55:03.114Z,99500.00
2023-03-06T01:57:42.648Z,99500.00
2023-03-06T02:00:20.345Z,99496.00
2023-03-06T02:02:59.726Z,99494.00
2023-03-06T02:05:35.866Z,99480.00
2023-03-06T02:08:11.125Z,99478.00
2023-03-06T02:10:58.341Z,99479.00
2023-03-06T02:13:32.623Z,99483.00
2023-03-06T02:16:08.881Z,99473.00
2023-03-06T02:18:45.342Z,99468.00
2023-03-06T02:21:27.124Z,99482.00
2023-03-06T02:24:29.461Z,99480.00
2023-03-06T02:27:08.039Z,99473.00
2023-03-06T02:29:41.858Z,99469.00
2023-03-06T02:32:15.507Z,99472.00
2023-03-06T02:34:55.164Z,99461.00
2023-03-06T02:37:30.852Z,99463.00
2023-03-06T02:40:13.946Z,99459.00
2023-03-06T02:42:52.052Z,99455.00
2023-03-06T02:45:35.211Z,99452.00
2023-03-06T02:48:10.136Z,99447.00
2023-03-06T02:50:47.049Z,99451.00
2023-03-06T02:53:23.004Z,99442.00
2023-03-06T02:55:57.528Z,99445.00
2023-03-06T02:58:32.672Z,99437.00
2023-03-06T03:01:06.912Z,99437.00
2023-03-06T03:03:41.074Z,99439.00
2023-03-06T03:06:14.617Z,99437.00
2023-03-06T03:08:48.217Z,99435.00
2023-03-06T03:11:22.051Z,99434.00
2023-03-06T03:13:57.589Z,99433.00
2023-03-06T03:16:31.543Z,99438.00
2023-03-06T03:19:05.732Z,99425.00
2023-03-06T03:21:39.756Z,99426.00
2023-03-06T03:24:13.518Z,99427.00
2023-03-06T03:26:47.772Z,99421.00
2023-03-06T03:29:25.626Z,99414.00
2023-03-06T03:31:59.937Z,99413.00
2023-03-06T03:34:33.496Z,99395.00
2023-03-06T03:37:07.593Z,99410.00
2023-03-06T03:39:41.713Z,99392.00
2023-03-06T03:42:15.491Z,99416.00
2023-03-06T03:44:50.704Z,99415.00
2023-03-06T03:47:24.143Z,99411.00
2023-03-06T03:49:57.831Z,99405.00
2023-03-06T03:52:31.477Z,99399.00
2023-03-06T03:55:08.538Z,99397.00
2023-03-06T03:57:43.275Z,99405.00
2023-03-06T04:00:20.036Z,99405.00
2023-03-06T04:02:53.916Z,99398.00
2023-03-06T04:05:27.910Z,99396.00
2023-03-06T04:08:03.135Z,99404.00
2023-03-06T04:10:38.804Z,99400.00
2023-03-06T04:13:12.346Z,99392.00
2023-03-06T04:15:47.323Z,99385.00
2023-03-06T04:18:21.984Z,99367.00
2023-03-06T04:20:55.776Z,99392.00
2023-03-06T04:23:29.948Z,99366.00
2023-03-06T04:26:03.756Z,99382.00
2023-03-06T04:28:39.735Z,99361.00
2023-03-06T04:31:15.194Z,99375.00
2023-03-06T04:33:48.734Z,99372.00
2023-03-06T04:36:29.681Z,99372.00
2023-03-06T04:39:03.994Z,99370.00
2023-03-06T04:41:40.065Z,99367.00
2023-03-06T04:44:14.275Z,99362.00
2023-03-06T04:46:49.787Z,99356.00
2023-03-06T04:49:23.918Z,99356.00
2023-03-06T04:51:57.627Z,99354.00
2023-03-06T04:54:31.314Z,99347.00
2023-03-06T04:57:05.362Z,99340.00
2023-03-06T04:59:39.294Z,99347.00
2023-03-06T05:02:14.836Z,99335.00
2023-03-06T05:04:49.345Z,99334.00
2023-03-06T05:07:23.231Z,99349.00
2023-03-06T05:09:57.218Z,99341.00
2023-03-06T05:12:33.625Z,99350.00
2023-03-06T05:15:10.028Z,99326.00
2023-03-06T05:17:46.294Z,99322.00
2023-03-06T05:20:20.298Z,99339.00
2023-03-06T05:22:54.357Z,99345.00
2023-03-06T05:25:28.045Z,99346.00
2023-03-06T05:28:03.297Z,99342.00
2023-03-06T05:30:37.642Z,99342.00
2023-03-06T05:33:12.603Z,99341.00
2023-03-06T05:35:48.721Z,99333.00
2023-03-06T05:38:23.507Z,99335.00
2023-03-06T05:40:57.505Z,99347.00
2023-03-06T05:43:31.169Z,99352.00
2023-03-06T05:46:06.682Z,99343.00
2023-03-06T05:48:42.014Z,99336.00
2023-03-06T05:51:16.201Z,99330.00
2023-03-06T05:53:49.838Z,99340.00
2023-03-06T05:56:26.318Z,99328.00
2023-03-06T05:59:00.233Z,99326.00
2023-03-06T06:01:33.758Z,99329.00
2023-03-06T06:04:08.739Z,99331.00
2023-03-06T06:06:42.324Z,99334.00
2023-03-06T06:09:16.246Z,99328.00
2023-03-06T06:11:53.904Z,99330.00
2023-03-06T06:14:28.159Z,99300.00
2023-03-06T06:17:01.870Z,99337.00
2023-03-06T06:19:37.108Z,99330.00
2023-03-06T06:22:10.923Z,99333.00
2023-03-06T06:24:44.692Z,99328.00
2023-03-06T06:27:20.938Z,99326.00
2023-03-06T06:29:54.449Z,99323.00
2023-03-06T06:32:28.503Z,99329.00
2023-03-06T06:35:04.808Z,99322.00
2023-03-06T06:37:38.558Z,99322.00
2023-03-06T06:40:13.507Z,99325.00
2023-03-06T06:42:48.007Z,99321.00
2023-03-06T06:45:22.992Z,99323.00
2023-03-06T06:47:57.428Z,99326.00
2023-03-06T06:50:33.219Z,99313.00
2023-03-06T06:53:07.366Z,99320.00
2023-03-06T06:55:41.459Z,99311.00
2023-03-06T06:58:16.136Z,99319.00
2023-03-06T07:00:50.083Z,99316.00
2023-03-06T07:03:24.124Z,99318.00
2023-03-06T07:05:59.237Z,99317.00
2023-03-06T07:08:33.175Z,99326.00
2023-03-06T07:11:11.573Z,99324.00
2023-03-06T07:13:45.635Z,99322.00
2023-03-06T07:16:19.812Z,99329.00
2023-03-06T07:18:53.370Z,99330.00
2023-03-06T07:21:28.850Z,99323.00
2023-03-06T07:24:02.349Z,99327.00
2023-03-06T07:26:36.154Z,99329.00
2023-03-06T07:29:09.764Z,99326.00
2023-03-06T07:31:43.825Z,99322.00
2023-03-06T07:34:17.452Z,99313.00
2023-03-06T07:36:52.725Z,99326.00
2023-03-06T07:39:28.183Z,99322.00
2023-03-06T07:42:02.191Z,99322.00
2023-03-06T07:44:38.603Z,99330.00
2023-03-06T07:47:14.366Z,99331.00
2023-03-06T07:49:48.060Z,99334.00
2023-03-06T07:52:23.223Z,99333.00
2023-03-06T07:54:57.149Z,99330.00
2023-03-06T07:57:30.637Z,99337.00
2023-03-06T08:00:06.430Z,99326.00
2023-03-06T08:02:42.432Z,99321.00
2023-03-06T08:05:18.580Z,99328.00
2023-03-06T08:07:53.705Z,99332.00
2023-03-06T08:10:27.615Z,99318.00
2023-03-06T08:13:01.104Z,99319.00
2023-03-06T08:15:35.198Z,99335.00
2023-03-06T08:18:09.041Z,99328.00
2023-03-06T08:20:42.698Z,99306.00
2023-03-06T08:23:17.730Z,99315.00
2023-03-06T08:25:59.099Z,99317.00
2023-03-06T08:28:32.793Z,99324.00
2023-03-06T08:31:12.077Z,99300.00
2023-03-06T08:33:45.873Z,99317.00
2023-03-06T08:36:19.637Z,99325.00
2023-03-06T08:38:56.317Z,99322.00
2023-03-06T08:41:30.901Z,99325.00
2023-03-06T08:44:05.838Z,99328.00
2023-03-06T08:46:39.919Z,99325.00
2023-03-06T08:49:14.857Z,99325.00
2023-03-06T08:51:48.567Z,99318.00
2023-03-06T08:54:23.817Z,99322.00
2023-03-06T08:56:57.433Z,99298.00
2023-03-06T08:59:31.522Z,99327.00
2023-03-06T09:02:07.018Z,99329.00
2023-03-06T09:04:40.556Z,99318.00
2023-03-06T09:07:13.892Z,99329.00
2023-03-06T09:09:48.852Z,99327.00
2023-03-06T09:12:22.405Z,99323.00
2023-03-06T09:14:55.965Z,99323.00
2023-03-06T09:17:29.980Z,99330.00
2023-03-06T09:20:04.887Z,99294.00
2023-03-06T09:22:42.515Z,99325.00
2023-03-06T09:25:21.941Z,99323.00
2023-03-06T09:28:10.158Z,99331.00
2023-03-06T09:30:45.164Z,99326.00
2023-03-06T09:33:19.451Z,99325.00
2023-03-06T09:35:56.478Z,99325.00
2023-03-06T09:38:30.241Z,99322.00
2023-03-06T09:41:16.789Z,99326.00
2023-03-06T09:43:55.038Z,99332.00
2023-03-06T09:46:44.081Z,99331.00
2023-03-06T09:49:54.142Z,99328.00
2023-03-06T09:52:43.494Z,99331.00
2023-03-06T09:55:21.942Z,99322.00
2023-03-06T09:58:07.557Z,99328.00
2023-03-06T10:00:46.124Z,99332.00
2023-03-06T10:03:26.307Z,99336.00
2023-03-06T10:06:06.302Z,99334.00
2023-03-06T10:08:53.051Z,99330.00
2023-03-06T10:11:34.117Z,99327.00
2023-03-06T10:14:27.981Z,99333.00
2023-03-06T10:17:03.505Z,99333.00
2023-03-06T10:19:40.470Z,99333.00
2023-03-06T10:22:27.878Z,99333.00
2023-03-06T10:25:18.058Z,99337.00
2023-03-06T10:28:00.982Z,99342.00
2023-03-06T10:30:49.102Z,99341.00
2023-03-06T10:33:48.265Z,99331.00
2023-03-06T10:36:25.655Z,99338.00
2023-03-06T10:39:00.534Z,99336.00
2023-03-06T10:41:36.640Z,99337.00
2023-03-06T10:44:25.852Z,99339.00
2023-03-06T10:47:12.230Z,99341.00
2023-03-06T10:50:01.270Z,99339.00
2023-03-06T10:52:37.500Z,99340.00
2023-03-06T10:55:37.931Z,99341.00
2023-03-06T10:58:26.269Z,99341.00
2023-03-06T11:01:19.893Z,99323.00
2023-03-06T11:03:54.785Z,99341.00
2023-03-06T11:06:36.095Z,99343.00
2023-03-06T11:09:23.374Z,99340.00
2023-03-06T11:12:29.747Z,99328.00
2023-03-06T11:15:22.473Z,99343.00
2023-03-06T11:18:01.112Z,99340.00
2023-03-06T11:20:51.853Z,99346.00
2023-03-06T11:23:38.891Z,99347.00
2023-03-06T11:26:40.008Z,99350.00
2023-03-06T11:29:40.978Z,99352.00
2023-03-06T11:32:24.001Z,99320.00
2023-03-06T11:35:04.097Z,99338.00
2023-03-06T11:37:51.627Z,99337.00
2023-03-06T11:40:34.265Z,99326.00
2023-03-06T11:43:23.482Z,99331.00
2023-03-06T11:46:05.494Z,99334.00
2023-03-06T11:48:49.226Z,99340.00
2023-03-06T11:51:33.936Z,99333.00
2023-03-06T11:54:14.233Z,99335.00
2023-03-06T11:56:57.078Z,99317.00
2023-03-06T12:00:18.446Z,99319.00
2023-03-06T12:03:27.415Z,99315.00
2023-03-06T12:06:12.038Z,99321.00
2023-03-06T12:09:12.672Z,99322.00
2023-03-06T12:11:56.447Z,99319.00
2023-03-06T12:14:53.980Z,99312.00
2023-03-06T12:17:50.214Z,99325.00
2023-03-06T12:20:54.387Z,99314.00
2023-03-06T12:23:56.802Z,99300.00
2023-03-06T12:26:59.069Z,99316.00
2023-03-06T12:29:59.040Z,99306.00
2023-03-06T12:32:50.906Z,99294.00
2023-03-06T12:35:53.871Z,99270.00
2023-03-06T12:39:02.464Z,99295.00
2023-03-06T12:41:53.064Z,99284.00
2023-03-06T12:45:03.940Z,99274.00
2023-03-06T12:47:45.815Z,99270.00
2023-03-06T12:50:25.733Z,99268.00
2023-03-06T12:53:06.152Z,99274.00
2023-03-06T12:55:44.164Z,99267.00
2023-03-06T12:58:52.087Z,99265.00
2023-03-06T13:02:12.615Z,99269.00
2023-03-06T13:05:25.333Z,99267.00
2023-03-06T13:08:32.964Z,99252.00
2023-03-06T13:11:59.243Z,99251.00
2023-03-06T13:14:54.876Z,99249.00
2023-03-06T13:17:39.723Z,99246.00
2023-03-06T13:20:43.634Z,99249.00
2023-03-06T13:23:54.030Z,99245.00
2023-03-06T13:27:03.607Z,99245.00
2023-03-06T13:30:21.716Z,99247.00
2023-03-06T13:32:57.934Z,99238.00
2023-03-06T13:35:54.481Z,99234.00
2023-03-06T13:38:35.286Z,99252.00
2023-03-06T13:41:54.974Z,99241.00
2023-03-06T13:44:53.410Z,99245.00
2023-03-06T13:48:19.462Z,99242.00
2023-03-06T13:50:51.041Z,99226.00
2023-03-06T13:54:13.475Z,99243.00
2023-03-06T13:57:21.058Z,99239.00
2023-03-06T14:00:33.944Z,99236.00
2023-03-06T14:03:52.024Z,99231.00
2023-03-06T14:07:05.645Z,99237.00
2023-03-06T14:09:45.913Z,99230.00
2023-03-06T14:12:26.504Z,99229.00
2023-03-06T14:15:05.270Z,99234.00
2023-03-06T14:17:40.385Z,99212.00
2023-03-06T14:20:17.345Z,99211.00
2023-03-06T14:22:54.579Z,99215.00
2023-03-06T14:25:32.799Z,99209.00
2023-03-06T14:28:14.112Z,99209.00
2023-03-06T14:30:53.034Z,99213.00
2023-03-06T14:33:33.695Z,99205.00
2023-03-06T14:36:09.416Z,99204.00
2023-03-06T14:38:50.316Z,99200.00
2023-03-06T14:41:28.119Z,99204.00
2023-03-06T14:44:19.600Z,99194.00
2023-03-06T14:46:56.491Z,99203.00
2023-03-06T14:49:30.402Z,99197.00
2023-03-06T14:52:04.924Z,99202.00
2023-03-06T14:54:45.148Z,99192.00
2023-03-06T14:57:22.690Z,99185.00
2023-03-06T15:00:00.468Z,99190.00
2023-03-06T15:02:34.631Z,99189.00
2023-03-06T15:05:22.895Z,99190.00
2023-03-06T15:08:03.111Z,99184.00
2023-03-06T15:10:39.835Z,99183.00
2023-03-06T15:13:23.626Z,99185.00
2023-03-06T15:16:00.398Z,99193.00
2023-03-06T15:18:39.013Z,99190.00
2023-03-06T15:21:19.988Z,99184.00
2023-03-06T15:23:55.824Z,99187.00
2023-03-06T15:26:35.101Z,99188.00
2023-03-06T15:29:24.124Z,99182.00
2023-03-06T15:32:28.815Z,99174.00
2023-03-06T15:35:28.298Z,99174.00
2023-03-06T15:38:02.562Z,99165.00
2023-03-06T15:40:36.531Z,99165.00
2023-03-06T15:43:12.449Z,99170.00
2023-03-06T15:45:45.837Z,99178.00
2023-03-06T15:48:20.652Z,99170.00
2023-03-06T15:50:54.286Z,99175.00
2023-03-06T15:53:28.554Z,99168.00
2023-03-06T15:56:03.317Z,99177.00
2023-03-06T15:58:42.664Z,99159.00
2023-03-06T16:01:19.824Z,99155.00
2023-03-06T16:03:54.496Z,99167.00
2023-03-06T16:06:29.941Z,99166.00
2023-03-06T16:09:03.415Z,99164.00
2023-03-06T16:11:43.831Z,99162.00
2023-03-06T16:14:24.268Z,99157.00
2023-03-06T16:16:59.961Z,99152.00
2023-03-06T16:19:33.787Z,99148.00
2023-03-06T16:22:07.934Z,99146.00
2023-03-06T16:24:41.881Z,99147.00
2023-03-06T16:27:20.224Z,99143.00
2023-03-06T16:29:55.460Z,99142.00
2023-03-06T16:32:29.331Z,99135.00
2023-03-06T16:35:03.134Z,99141.00
2023-03-06T16:37:36.858Z,99136.00
2023-03-06T16:40:22.214Z,99126.00
2023-03-06T16:42:56.265Z,99143.00
2023-03-06T16:45:36.004Z,99140.00
2023-03-06T16:48:15.436Z,99139.00
2023-03-06T16:50:48.932Z,99147.00
2023-03-06T16:53:24.821Z,99138.00
2023-03-06T16:55:58.470Z,99142.00
2023-03-06T16:58:31.910Z,99148.00
2023-03-06T17:01:08.417Z,99120.00
2023-03-06T17:03:42.474Z,99142.00
2023-03-06T17:06:19.345Z,99147.00
2023-03-06T17:08:53.314Z,99143.00
2023-03-06T17:11:29.452Z,99141.00
2023-03-06T17:14:03.734Z,99141.00
2023-03-06T17:16:40.510Z,99147.00
2023-03-06T17:19:16.678Z,99143.00
2023-03-06T17:21:50.433Z,99133.00
2023-03-06T17:24:24.107Z,99126.00
2023-03-06T17:26:57.992Z,99135.00
2023-03-06T17:29:31.721Z,99133.00
2023-03-06T17:32:08.045Z,99130.00
2023-03-06T17:34:42.674Z,99127.00
2023-03-06T17:37:16.411Z,99133.00
2023-03-06T17:39:51.742Z,99137.00
2023-03-06T17:42:25.112Z,99130.00
2023-03-06T17:44:58.954Z,99124.00
2023-03-06T17:47:34.064Z,99110.00
2023-03-06T17:50:09.067Z,99124.00
2023-03-06T17:52:43.064Z,99124.00
2023-03-06T17:55:17.006Z,99128.00
2023-03-06T17:57:53.286Z,99099.00
2023-03-06T18:00:27.191Z,99122.00
2023-03-06T18:03:02.326Z,99107.00
2023-03-06T18:05:36.088Z,99119.00
2023-03-06T18:08:10.332Z,99117.00
2023-03-06T18:10:44.624Z,99124.00
2023-03-06T18:13:18.310Z,99112.00
2023-03-06T18:15:52.104Z,99105.00
2023-03-06T18:18:28.529Z,99106.00
2023-03-06T18:21:07.448Z,99104.00
2023-03-06T18:23:44.102Z,99105.00
2023-03-06T18:26:20.458Z,99098.00
2023-03-06T18:28:57.843Z,99111.00
2023-03-06T18:31:35.409Z,99091.00
2023-03-06T18:34:14.862Z,99093.00
2023-03-06T18:36:51.678Z,99102.00
2023-03-06T18:39:25.301Z,99096.00
2023-03-06T18:41:59.034Z,99091.00
2023-03-06T18:44:32.686Z,99082.00
2023-03-06T18:47:07.308Z,99087.00
2023-03-06T18:49:44.180Z,99077.00
2023-03-06T18:52:18.785Z,99074.00
2023-03-06T18:54:53.926Z,99074.00
2023-03-06T18:57:29.273Z,99071.00
2023-03-06T19:00:04.356Z,99060.00
2023-03-06T19:02:38.310Z,99063.00
2023-03-06T19:05:14.147Z,99058.00
2023-03-06T19:07:48.198Z,99052.00
2023-03-06T19:10:22.922Z,99058.00
2023-03-06T19:12:56.607Z,99059.00
2023-03-06T19:15:30.199Z,99048.00
2023-03-06T19:18:03.845Z,99049.00
2023-03-06T19:20:39.888Z,99041.00
2023-03-06T19:23:14.209Z,99044.00
2023-03-06T19:25:58.131Z,99036.00
2023-03-06T19:28:31.860Z,99032.00
2023-03-06T19:31:14.831Z,99028.00
2023-03-06T19:33:50.316Z,99036.00
2023-03-06T19:36:28.963Z,99036.00
2023-03-06T19:39:06.298Z,99028.00
2023-03-06T19:41:40.106Z,99026.00
2023-03-06T19:44:14.654Z,99027.00
2023-03-06T19:46:48.713Z,99015.00
2023-03-06T19:49:23.510Z,99030.00
2023-03-06T19:51:58.653Z,99012.00
2023-03-06T19:54:32.924Z,99016.00
2023-03-06T19:57:06.757Z,99009.00
2023-03-06T19:59:40.334Z,98989.00
2023-03-06T20:02:16.211Z,99007.00
2023-03-06T20:04:50.207Z,99000.00
2023-03-06T20:07:26.181Z,98984.00
2023-03-06T20:10:01.079Z,98989.00
2023-03-06T20:12:34.760Z,98983.00
2023-03-06T20:15:10.744Z,98982.00
2023-03-06T20:17:44.337Z,98967.00
2023-03-06T20:20:18.370Z,98961.00
2023-03-06T20:22:53.427Z,98960.00
2023-03-06T20:25:27.321Z,98956.00
2023-03-06T20:28:01.100Z,98952.00
2023-03-06T20:30:38.433Z,98942.00
2023-03-06T20:33:13.669Z,98944.00
2023-03-06T20:35:48.207Z,98940.00
2023-03-06T20:38:23.253Z,98941.00
2023-03-06T20:40:58.285Z,98937.00
2023-03-06T20:43:32.463Z,98932.00
2023-03-06T20:46:07.129Z,98922.00
2023-03-06T20:48:41.715Z,98917.00
2023-03-06T20:51:20.329Z,98923.00
2023-03-06T20:53:56.633Z,98923.00
2023-03-06T20:56:33.976Z,98920.00
2023-03-06T20:59:08.334Z,98919.00
2023-03-06T21:01:45.522Z,98909.00
2023-03-06T21:04:19.377Z,98898.00
2023-03-06T21:06:55.285Z,98906.00
2023-03-06T21:09:30.586Z,98895.00
2023-03-06T21:12:04.378Z,98902.00
2023-03-06T21:14:37.835Z,98907.00
2023-03-06T21:17:13.833Z,98901.00
2023-03-06T21:19:47.661Z,98897.00
2023-03-06T21:22:21.978Z,98890.00
2023-03-06T21:24:57.033Z,98878.00
2023-03-06T21:27:31.312Z,98865.00
2023-03-06T21:30:06.752Z,98874.00
2023-03-06T21:32:41.314Z,98848.00
2023-03-06T21:35:15.219Z,98859.00
2023-03-06T21:37:48.938Z,98833.00
2023-03-06T21:40:24.158Z,98857.00
2023-03-06T21:42:57.657Z,98851.00
2023-03-06T21:45:31.940Z,98848.00
2023-03-06T21:48:06.570Z,98844.00
2023-03-06T21:50:40.529Z,98832.00
2023-03-06T21:53:14.173Z,98840.00
2023-03-06T21:55:49.513Z,98828.00
2023-03-06T21:58:23.252Z,98835.00
2023-03-06T22:00:57.176Z,98835.00
2023-03-06T22:03:30.743Z,98826.00
2023-03-06T22:06:11.661Z,98828.00
2023-03-06T22:08:46.664Z,98825.00
2023-03-06T22:11:24.848Z,98827.00
2023-03-06T22:13:59.162Z,98819.00
2023-03-06T22:16:33.038Z,98818.00
2023-03-06T22:19:07.299Z,98798.00
2023-03-06T22:21:41.120Z,98803.00
2023-03-06T22:24:15.102Z,98794.00
2023-03-06T22:26:50.193Z,98781.00
2023-03-06T22:29:24.850Z,98784.00
2023-03-06T22:31:59.216Z,98777.00
2023-03-06T22:34:33.282Z,98773.00
2023-03-06T22:37:06.893Z,98768.00
2023-03-06T22:39:40.582Z,98767.00
2023-03-06T22:42:16.014Z,98760.00
2023-03-06T22:44:50.044Z,98754.00
2023-03-06T22:47:23.656Z,98756.00
2023-03-06T22:49:57.554Z,98736.00
2023-03-06T22:52:31.050Z,98762.00
2023-03-06T22:55:05.607Z,98746.00
2023-03-06T22:57:45.414Z,98742.00
2023-03-06T23:00:21.239Z,98742.00
2023-03-06T23:02:54.966Z,98743.00
2023-03-06T23:05:29.949Z,98733.00
2023-03-06T23:08:04.272Z,98734.00
2023-03-06T23:10:39.602Z,98726.00
2023-03-06T23:13:15.869Z,98730.00
2023-03-06T23:15:49.465Z,98718.00
2023-03-06T23:18:23.538Z,98721.00
2023-03-06T23:20:57.246Z,98725.00
2023-03-06T23:23:30.564Z,98719.00
2023-03-06T23:26:04.867Z,98722.00
2023-03-06T23:28:39.813Z,98713.00
2023-03-06T23:31:17.078Z,98716.00
2023-03-06T23:33:51.293Z,98716.00
2023-03-06T23:36:24.749Z,98707.00
2023-03-06T23:38:58.957Z,98705.00
2023-03-06T23:41:32.829Z,98709.00
2023-03-06T23:44:08.997Z,98701.00
2023-03-06T23:46:43.139Z,98688.00
2023-03-06T23:49:17.044Z,98687.00
2023-03-06T23:51:51.064Z,98680.00
2023-03-06T23:54:24.439Z,98694.00
2023-03-06T23:56:58.255Z,98682.00
2023-03-06T23:59:33.351Z,98688.00
